Time;durP1;ratioP1;P1;durP2;ratioP2;P2;SDS_P1;SDS_P2;PMS_P1;PMS_P2;Temp;Humidity;BMP_temperature;BMP_pressure;BME280_temperature;BME280_humidity;BME280_pressure;Samples;Min_cycle;Max_cycle;Signal;HPM_P1;HPM_P2
2023/07/17 00:00:22;;;;;;;3.70;2.03;;;19.50;55.60;;;;;;5066258;28;20903;-70
2023/07/17 00:02:48;;;;;;;4.40;2.13;;;19.40;55.50;;;;;;5095668;28;20223;-70
2023/07/17 00:05:13;;;;;;;3.53;2.47;;;19.50;55.50;;;;;;5095802;28;20269;-70
2023/07/17 00:07:40;;;;;;;6.93;2.67;;;19.50;55.50;;;;;;5096576;28;20349;-74
2023/07/17 00:10:10;;;;;;;5.57;2.90;;;19.50;55.50;;;;;;5063026;28;20304;-74
2023/07/17 00:12:37;;;;;;;5.87;3.07;;;19.50;55.40;;;;;;5059463;28;20786;-73
2023/07/17 00:15:06;;;;;;;7.07;2.77;;;19.50;55.50;;;;;;5062416;28;20614;-72
2023/07/17 00:17:33;;;;;;;7.90;3.20;;;19.50;55.90;;;;;;5100225;28;20689;-69
2023/07/17 00:19:59;;;;;;;5.27;3.37;;;19.50;56.10;;;;;;5098871;28;20480;-71
2023/07/17 00:22:25;;;;;;;6.37;4.10;;;19.50;56.20;;;;;;5099819;28;20489;-72
2023/07/17 00:24:52;;;;;;;4.60;2.87;;;19.40;56.40;;;;;;5090198;28;20526;-74
2023/07/17 00:27:19;;;;;;;6.77;3.77;;;19.40;56.70;;;;;;5062602;28;20331;-71
2023/07/17 00:29:45;;;;;;;5.70;3.57;;;19.30;57.10;;;;;;5080703;28;20441;-71
2023/07/17 00:32:14;;;;;;;5.17;3.13;;;19.30;57.40;;;;;;5082869;28;20801;-70
2023/07/17 00:34:40;;;;;;;4.93;3.27;;;19.30;57.70;;;;;;5081542;28;20434;-70
2023/07/17 00:37:08;;;;;;;5.70;3.33;;;19.30;58.00;;;;;;5081391;28;20414;-70
2023/07/17 00:39:34;;;;;;;9.33;4.03;;;19.20;58.20;;;;;;5077534;28;20441;-71
2023/07/17 00:42:01;;;;;;;4.43;3.10;;;19.30;58.60;;;;;;5080514;28;20845;-71
2023/07/17 00:44:30;;;;;;;4.83;3.20;;;19.30;58.80;;;;;;5081828;28;20286;-70
2023/07/17 00:46:56;;;;;;;7.33;3.47;;;19.20;58.80;;;;;;5099210;28;20491;-71
2023/07/17 00:49:23;;;;;;;6.17;4.13;;;19.20;59.10;;;;;;5080867;28;20442;-70
2023/07/17 00:51:51;;;;;;;10.73;4.10;;;19.30;59.50;;;;;;5080753;28;20488;-70
2023/07/17 00:54:18;;;;;;;7.07;3.67;;;19.30;60.70;;;;;;5099003;28;20423;-70
2023/07/17 00:56:45;;;;;;;7.10;3.90;;;19.20;61.60;;;;;;5069055;28;20464;-71
2023/07/17 00:59:12;;;;;;;5.73;3.77;;;19.20;63.00;;;;;;5098927;28;20881;-70
2023/07/17 01:01:39;;;;;;;6.43;3.67;;;19.10;63.80;;;;;;5081051;28;20418;-70
2023/07/17 01:04:05;;;;;;;8.10;3.83;;;19.10;65.70;;;;;;5081082;28;20504;-71
2023/07/17 01:06:31;;;;;;;8.23;4.40;;;19.00;67.50;;;;;;5097038;28;20501;-71
2023/07/17 01:08:58;;;;;;;8.23;4.27;;;18.90;69.40;;;;;;5097173;28;20766;-70
2023/07/17 01:11:23;;;;;;;8.70;4.50;;;18.90;71.70;;;;;;5092719;28;20437;-71
2023/07/17 01:13:51;;;;;;;6.23;3.60;;;18.80;74.60;;;;;;5097731;28;20540;-72
2023/07/17 01:16:17;;;;;;;7.00;3.90;;;18.70;76.90;;;;;;5080276;28;20178;-72
2023/07/17 01:18:43;;;;;;;4.53;3.33;;;18.60;79.50;;;;;;5079699;28;20627;-71
2023/07/17 01:21:12;;;;;;;5.10;3.17;;;18.60;81.50;;;;;;5080001;28;20577;-71
2023/07/17 01:23:38;;;;;;;3.80;2.77;;;18.60;82.90;;;;;;5079297;28;20516;-70
2023/07/17 01:26:11;;;;;;;3.90;3.07;;;18.50;84.20;;;;;;5055095;28;20432;-70
2023/07/17 01:28:37;;;;;;;4.80;2.80;;;18.50;85.60;;;;;;5097051;28;20420;-71
2023/07/17 01:31:03;;;;;;;5.73;3.47;;;18.40;86.50;;;;;;5096698;28;20432;-71
2023/07/17 01:33:29;;;;;;;6.87;3.20;;;18.40;87.50;;;;;;5097534;28;20254;-70
2023/07/17 01:35:56;;;;;;;3.40;2.47;;;18.40;88.80;;;;;;5079537;28;20187;-71
2023/07/17 01:38:21;;;;;;;7.03;3.10;;;18.30;89.10;;;;;;5078800;28;20421;-73
2023/07/17 01:40:47;;;;;;;5.03;2.97;;;18.30;89.70;;;;;;5070469;28;20210;-70
2023/07/17 01:43:12;;;;;;;4.27;2.63;;;18.30;90.70;;;;;;5094721;28;20215;-70
2023/07/17 01:45:38;;;;;;;4.70;2.40;;;18.30;90.80;;;;;;5097205;28;20194;-71
2023/07/17 01:48:04;;;;;;;6.67;2.67;;;18.20;91.10;;;;;;5079552;28;20655;-71
2023/07/17 01:50:30;;;;;;;3.70;2.73;;;18.20;91.50;;;;;;5096173;28;20260;-70
2023/07/17 01:52:56;;;;;;;3.80;3.20;;;18.20;91.80;;;;;;5096910;28;20218;-70
2023/07/17 01:55:22;;;;;;;3.77;2.87;;;18.20;91.90;;;;;;5060076;28;20193;-70
2023/07/17 01:57:47;;;;;;;5.43;3.13;;;18.10;91.90;;;;;;5075885;28;20414;-70
2023/07/17 02:00:13;;;;;;;3.23;2.50;;;18.10;91.90;;;;;;5078847;28;20209;-70
2023/07/17 02:02:39;;;;;;;4.07;2.70;;;18.10;91.90;;;;;;5096334;28;20195;-70
2023/07/17 02:05:06;;;;;;;3.83;2.50;;;18.00;92.30;;;;;;5060187;28;1048978;-70
2023/07/17 02:07:32;;;;;;;5.60;2.60;;;17.90;92.70;;;;;;5079952;28;20172;-71
2023/07/17 02:10:03;;;;;;;5.80;3.30;;;17.90;93.20;;;;;;5083013;28;20447;-70
2023/07/17 02:12:29;;;;;;;5.23;2.50;;;17.90;93.30;;;;;;5057835;28;20793;-71
2023/07/17 02:14:54;;;;;;;4.00;2.50;;;17.80;93.40;;;;;;5079821;28;20499;-71
2023/07/17 02:17:20;;;;;;;5.53;2.77;;;17.90;93.50;;;;;;5079906;28;20189;-71
2023/07/17 02:19:45;;;;;;;4.50;2.47;;;17.90;93.40;;;;;;5097897;28;20192;-72
2023/07/17 02:22:13;;;;;;;5.80;3.23;;;17.90;93.30;;;;;;5100304;28;20212;-70
2023/07/17 02:24:39;;;;;;;5.33;2.47;;;17.90;93.10;;;;;;5090695;28;20433;-70
2023/07/17 02:27:04;;;;;;;3.90;2.33;;;18.00;92.90;;;;;;5095549;28;20194;-72
2023/07/17 02:29:30;;;;;;;4.17;2.80;;;18.00;92.70;;;;;;5079216;28;20202;-70
2023/07/17 02:31:55;;;;;;;3.47;2.70;;;18.10;92.50;;;;;;5097245;28;20207;-70
2023/07/17 02:34:21;;;;;;;3.90;2.40;;;18.10;92.30;;;;;;5077915;28;20464;-70
2023/07/17 02:36:47;;;;;;;5.50;2.80;;;18.10;92.20;;;;;;5078892;28;20171;-70
2023/07/17 02:39:13;;;;;;;5.60;2.80;;;18.10;92.20;;;;;;5096631;28;20498;-69
2023/07/17 02:41:39;;;;;;;4.80;2.00;;;18.10;92.40;;;;;;5057601;28;20448;-77
2023/07/17 02:44:05;;;;;;;3.00;2.20;;;18.10;92.90;;;;;;5079538;28;20429;-70
2023/07/17 02:46:30;;;;;;;3.90;2.43;;;18.00;92.60;;;;;;5079217;28;20270;-72
2023/07/17 02:48:56;;;;;;;5.00;2.40;;;17.90;92.80;;;;;;5078359;28;20183;-70
2023/07/17 02:51:22;;;;;;;3.33;2.37;;;17.90;93.10;;;;;;5096379;28;20540;-70
2023/07/17 02:53:47;;;;;;;6.03;3.97;;;17.90;93.50;;;;;;5078435;28;20187;-70
2023/07/17 02:56:13;;;;;;;3.60;2.10;;;17.90;93.70;;;;;;5049163;28;20189;-70
2023/07/17 02:58:42;;;;;;;4.63;2.67;;;17.80;93.70;;;;;;5078142;28;20187;-71
2023/07/17 03:01:10;;;;;;;3.40;2.40;;;17.80;93.90;;;;;;5077970;28;20225;-70
2023/07/17 03:03:36;;;;;;;4.17;2.47;;;17.70;94.20;;;;;;5078413;28;20408;-70
2023/07/17 03:06:01;;;;;;;3.10;1.90;;;17.60;94.60;;;;;;5096321;28;20535;-71
2023/07/17 03:08:27;;;;;;;6.00;2.30;;;17.60;95.10;;;;;;5096529;28;20614;-71
2023/07/17 03:10:53;;;;;;;5.47;2.17;;;17.50;95.70;;;;;;5050168;28;20977;-71
2023/07/17 03:13:20;;;;;;;3.47;2.00;;;17.50;96.00;;;;;;5078911;28;20604;-70
2023/07/17 03:15:48;;;;;;;1.97;1.77;;;17.50;96.30;;;;;;5078055;28;20172;-70
2023/07/17 03:18:13;;;;;;;3.60;2.30;;;17.50;96.40;;;;;;5096603;28;20749;-70
2023/07/17 03:20:43;;;;;;;3.87;1.97;;;17.50;96.50;;;;;;5095587;28;20490;-69
2023/07/17 03:23:09;;;;;;;3.10;1.80;;;17.50;96.70;;;;;;5077988;28;20182;-70
2023/07/17 03:25:34;;;;;;;3.00;1.70;;;17.50;96.80;;;;;;5062974;28;20675;-69
2023/07/17 03:28:01;;;;;;;3.27;2.00;;;17.50;96.80;;;;;;5078997;28;20589;-73
2023/07/17 03:30:27;;;;;;;4.00;2.17;;;17.60;96.90;;;;;;5077413;28;20197;-71
2023/07/17 03:32:52;;;;;;;3.77;2.30;;;17.60;96.90;;;;;;5077181;28;20537;-71
2023/07/17 03:35:18;;;;;;;5.00;2.40;;;17.60;96.90;;;;;;5078036;28;20181;-70
2023/07/17 03:37:44;;;;;;;7.00;2.93;;;17.60;97.10;;;;;;5096326;28;20419;-70
2023/07/17 03:40:10;;;;;;;4.53;3.20;;;17.60;97.10;;;;;;5087402;28;20614;-70
2023/07/17 03:42:36;;;;;;;3.33;2.47;;;17.60;97.20;;;;;;5078290;28;20589;-70
2023/07/17 03:45:04;;;;;;;7.50;3.23;;;17.60;97.10;;;;;;5076974;28;20423;-71
2023/07/17 03:47:32;;;;;;;4.00;2.10;;;17.60;97.30;;;;;;5078268;28;20424;-70
2023/07/17 03:49:58;;;;;;;3.90;2.30;;;17.60;97.30;;;;;;5077508;28;20894;-70
2023/07/17 03:52:24;;;;;;;3.80;2.53;;;17.60;97.40;;;;;;5076659;28;20216;-72
2023/07/17 03:54:50;;;;;;;5.57;2.43;;;17.50;97.50;;;;;;5078969;28;20425;-71
2023/07/17 03:57:15;;;;;;;3.90;2.70;;;17.50;97.60;;;;;;5063334;28;20281;-70
2023/07/17 03:59:52;;;;;;;5.17;2.80;;;17.40;97.50;;;;;;5068782;28;20443;-70
2023/07/17 04:02:22;;;;;;;4.17;2.00;;;17.40;97.30;;;;;;5081211;28;20176;-71
2023/07/17 04:04:48;;;;;;;4.10;2.83;;;17.30;97.30;;;;;;5081117;28;20467;-70
2023/07/17 04:07:14;;;;;;;2.80;2.53;;;17.30;97.40;;;;;;5099409;28;20412;-71
2023/07/17 04:09:40;;;;;;;3.37;2.30;;;17.30;97.30;;;;;;5077967;28;20490;-70
2023/07/17 04:12:06;;;;;;;4.33;2.73;;;17.30;96.90;;;;;;5046037;28;20453;-71
2023/07/17 04:14:33;;;;;;;3.50;2.07;;;17.30;96.70;;;;;;5045554;28;20297;-71
2023/07/17 04:17:00;;;;;;;5.50;2.83;;;17.30;96.60;;;;;;5077117;28;20191;-73
2023/07/17 04:19:27;;;;;;;3.60;2.43;;;17.40;96.50;;;;;;5081991;28;20439;-70
2023/07/17 04:21:53;;;;;;;4.30;2.43;;;17.50;95.90;;;;;;5081981;28;20407;-72
2023/07/17 04:24:19;;;;;;;2.80;2.33;;;17.60;95.40;;;;;;5098803;28;20411;-70
2023/07/17 04:26:50;;;;;;;5.43;2.83;;;17.70;95.20;;;;;;5060051;28;20425;-72
2023/07/17 04:29:16;;;;;;;4.10;2.57;;;17.70;94.60;;;;;;5046048;28;20461;-71
2023/07/17 04:31:42;;;;;;;4.57;2.77;;;17.80;94.50;;;;;;5082246;28;20453;-73
2023/07/17 04:34:09;;;;;;;4.53;2.60;;;17.80;94.10;;;;;;5083807;28;20862;-73
2023/07/17 04:36:35;;;;;;;5.20;2.80;;;17.90;93.70;;;;;;5082627;28;20856;-73
2023/07/17 04:39:04;;;;;;;4.00;2.73;;;17.90;93.20;;;;;;5081942;28;20411;-72
2023/07/17 04:41:31;;;;;;;4.60;2.70;;;17.90;92.90;;;;;;5045850;28;20203;-72
2023/07/17 04:43:58;;;;;;;4.43;3.03;;;17.90;92.40;;;;;;5071115;28;20679;-72
2023/07/17 04:46:25;;;;;;;5.20;2.50;;;17.90;92.20;;;;;;5087352;28;20460;-74
2023/07/17 04:48:51;;;;;;;6.73;2.20;;;17.90;92.20;;;;;;5069368;28;20488;-74
2023/07/17 04:51:17;;;;;;;3.47;2.50;;;18.00;91.70;;;;;;5087905;28;20437;-74
2023/07/17 04:53:42;;;;;;;2.47;1.90;;;18.10;91.10;;;;;;5088167;28;20249;-73
2023/07/17 04:56:08;;;;;;;3.63;3.07;;;18.30;90.40;;;;;;5053799;28;20214;-74
2023/07/17 04:58:34;;;;;;;3.70;2.40;;;18.40;88.90;;;;;;5102490;28;20198;-72
2023/07/17 05:01:03;;;;;;;3.87;2.33;;;18.60;86.20;;;;;;5090024;28;20200;-73
2023/07/17 05:03:29;;;;;;;5.27;2.80;;;18.90;83.00;;;;;;5087285;28;20793;-72
2023/07/17 05:05:55;;;;;;;6.53;3.20;;;19.00;79.10;;;;;;5069367;28;20899;-72
2023/07/17 05:08:24;;;;;;;4.80;2.70;;;19.00;79.00;;;;;;5086109;28;20730;-71
2023/07/17 05:10:55;;;;;;;3.30;2.57;;;18.80;79.00;;;;;;5072397;28;20456;-70
2023/07/17 05:13:22;;;;;;;3.70;2.00;;;18.80;80.00;;;;;;5085114;28;20454;-72
2023/07/17 05:15:50;;;;;;;4.60;2.60;;;18.90;79.30;;;;;;5085385;28;20911;-76
2023/07/17 05:18:17;;;;;;;3.30;2.80;;;19.30;78.40;;;;;;5068639;28;20406;-71
2023/07/17 05:20:47;;;;;;;4.53;2.73;;;19.80;74.50;;;;;;5085344;28;20441;-72
2023/07/17 05:23:13;;;;;;;6.53;3.30;;;20.40;71.00;;;;;;5106569;28;20421;-75
2023/07/17 05:25:39;;;;;;;4.23;2.73;;;20.70;65.30;;;;;;5059753;28;20427;-75
2023/07/17 05:28:05;;;;;;;3.73;2.50;;;21.00;64.50;;;;;;5075791;28;20433;-73
2023/07/17 05:30:35;;;;;;;6.43;3.23;;;21.20;63.40;;;;;;5103680;28;20435;-72
2023/07/17 05:33:01;;;;;;;6.00;2.30;;;21.40;61.70;;;;;;5087726;28;20281;-73
2023/07/17 05:35:28;;;;;;;5.07;2.50;;;21.80;60.50;;;;;;5092937;28;20410;-72
2023/07/17 05:37:54;;;;;;;3.50;2.30;;;22.10;59.30;;;;;;5085600;28;20406;-72
2023/07/17 05:40:20;;;;;;;4.50;3.10;;;22.50;58.10;;;;;;5078302;28;20854;-72
2023/07/17 05:42:45;;;;;;;4.57;2.43;;;22.90;56.70;;;;;;5107079;28;20179;-72
2023/07/17 05:45:13;;;;;;;5.60;3.50;;;23.10;55.70;;;;;;5073473;28;20183;-73
2023/07/17 05:47:38;;;;;;;4.30;2.70;;;23.10;55.30;;;;;;5072066;28;20400;-74
2023/07/17 05:50:05;;;;;;;6.03;2.83;;;23.30;55.10;;;;;;5087809;28;20200;-71
2023/07/17 05:52:30;;;;;;;3.60;2.43;;;23.40;53.50;;;;;;5071907;28;20204;-72
2023/07/17 05:54:56;;;;;;;7.30;3.63;;;23.30;53.40;;;;;;5107231;28;20502;-74
2023/07/17 05:57:22;;;;;;;4.10;2.90;;;23.00;53.60;;;;;;5105497;28;20181;-74
2023/07/17 05:59:47;;;;;;;4.30;2.13;;;22.70;54.40;;;;;;5103155;28;20188;-72
2023/07/17 06:02:14;;;;;;;4.90;2.63;;;22.40;55.40;;;;;;5068450;28;20490;-73
2023/07/17 06:04:40;;;;;;;5.57;3.03;;;22.20;55.40;;;;;;5086609;28;20232;-74
2023/07/17 06:07:06;;;;;;;5.07;2.50;;;21.90;55.50;;;;;;5105425;28;20483;-72
2023/07/17 06:09:32;;;;;;;5.33;2.50;;;21.60;56.90;;;;;;5063909;28;20208;-72
2023/07/17 06:11:57;;;;;;;6.53;3.57;;;21.40;56.90;;;;;;5046469;28;20222;-71
2023/07/17 06:14:23;;;;;;;4.90;3.10;;;21.30;56.80;;;;;;5046906;28;20182;-73
2023/07/17 06:16:48;;;;;;;4.73;3.07;;;20.90;57.50;;;;;;5067756;28;20208;-71
2023/07/17 06:19:14;;;;;;;5.07;3.20;;;20.70;58.10;;;;;;5106108;28;20279;-75
2023/07/17 06:21:40;;;;;;;5.47;3.40;;;20.70;58.30;;;;;;5087964;28;20188;-75
2023/07/17 06:24:07;;;;;;;3.50;3.10;;;20.40;58.50;;;;;;5105198;28;20180;-74
2023/07/17 06:26:34;;;;;;;5.20;3.50;;;20.20;59.10;;;;;;5071443;28;20363;-72
2023/07/17 06:29:00;;;;;;;6.90;4.03;;;20.20;59.40;;;;;;5086132;28;20798;-70
2023/07/17 06:31:25;;;;;;;5.30;2.90;;;20.30;59.70;;;;;;5103631;28;20420;-77
2023/07/17 06:33:51;;;;;;;5.60;3.00;;;20.70;59.40;;;;;;5106263;28;20450;-74
2023/07/17 06:36:16;;;;;;;4.80;2.57;;;21.40;58.60;;;;;;5086003;28;20299;-77
2023/07/17 06:38:42;;;;;;;8.13;4.00;;;22.00;57.50;;;;;;5085180;28;20248;-75
2023/07/17 06:41:07;;;;;;;3.50;2.80;;;22.50;56.40;;;;;;5097200;28;20211;-77
2023/07/17 06:43:33;;;;;;;3.10;2.27;;;22.90;55.10;;;;;;5102050;28;20233;-77
2023/07/17 06:45:59;;;;;;;8.57;2.90;;;23.20;54.50;;;;;;5084662;28;20184;-76
2023/07/17 06:48:24;;;;;;;5.83;3.33;;;23.40;53.60;;;;;;5084724;28;20219;-72
2023/07/17 06:50:50;;;;;;;3.40;2.30;;;23.50;52.90;;;;;;5086661;28;20204;-73
2023/07/17 06:53:16;;;;;;;4.90;3.30;;;23.40;53.00;;;;;;5087926;28;20215;-74
2023/07/17 06:55:42;;;;;;;5.83;2.83;;;23.50;52.00;;;;;;5094240;28;20185;-74
2023/07/17 06:58:07;;;;;;;5.10;2.50;;;23.60;51.80;;;;;;5104078;28;20414;-73
2023/07/17 07:00:33;;;;;;;10.27;3.70;;;23.70;51.70;;;;;;5103670;28;20592;-74
2023/07/17 07:03:00;;;;;;;8.77;4.50;;;23.70;51.50;;;;;;5088281;28;20226;-75
2023/07/17 07:05:25;;;;;;;7.03;3.60;;;23.60;51.50;;;;;;5085336;28;20272;-73
2023/07/17 07:07:51;;;;;;;4.07;2.90;;;23.40;51.20;;;;;;5107175;28;20423;-74
2023/07/17 07:10:17;;;;;;;4.03;3.20;;;23.50;51.50;;;;;;5088866;28;20192;-73
2023/07/17 07:12:43;;;;;;;3.57;3.00;;;23.60;51.00;;;;;;5106780;28;20206;-75
2023/07/17 07:15:09;;;;;;;4.20;2.77;;;23.60;50.90;;;;;;5105472;28;20195;-72
2023/07/17 07:17:35;;;;;;;7.90;4.20;;;23.80;50.80;;;;;;5105766;28;20191;-75
2023/07/17 07:20:01;;;;;;;6.43;3.73;;;23.60;50.20;;;;;;5093282;28;20706;-75
2023/07/17 07:22:26;;;;;;;7.80;3.67;;;23.40;50.70;;;;;;5089152;28;20269;-74
2023/07/17 07:24:52;;;;;;;5.50;3.03;;;23.00;51.10;;;;;;5068116;28;20389;-73
2023/07/17 07:27:18;;;;;;;23.60;5.97;;;22.70;52.00;;;;;;5072756;28;20188;-76
2023/07/17 07:29:43;;;;;;;3.90;3.50;;;22.70;51.70;;;;;;5087218;28;20212;-72
2023/07/17 07:32:09;;;;;;;6.17;3.67;;;22.90;51.50;;;;;;5085290;28;20212;-73
2023/07/17 07:34:35;;;;;;;5.97;3.70;;;22.80;51.50;;;;;;5085219;28;20233;-72
2023/07/17 07:37:02;;;;;;;4.40;2.90;;;22.60;51.80;;;;;;5104609;28;20173;-75
2023/07/17 07:39:28;;;;;;;6.83;4.40;;;22.50;51.50;;;;;;5067017;28;20204;-72
2023/07/17 07:41:53;;;;;;;5.50;3.70;;;22.30;49.60;;;;;;5080476;28;20478;-74
2023/07/17 07:44:24;;;;;;;6.30;4.73;;;22.20;50.00;;;;;;5087709;28;20279;-73
2023/07/17 07:46:50;;;;;;;6.10;5.27;;;22.00;49.80;;;;;;5070247;28;20188;-72
2023/07/17 07:49:15;;;;;;;5.57;4.40;;;21.70;49.90;;;;;;5087825;28;20691;-72
2023/07/17 07:51:41;;;;;;;7.07;4.50;;;21.60;50.20;;;;;;5070713;28;20180;-74
2023/07/17 07:54:07;;;;;;;5.90;4.03;;;21.40;50.00;;;;;;5088686;28;20177;-75
2023/07/17 07:56:32;;;;;;;6.97;4.23;;;21.40;50.30;;;;;;5070932;28;20216;-72
2023/07/17 07:58:58;;;;;;;5.80;4.50;;;21.40;50.70;;;;;;5103530;28;20180;-73
2023/07/17 08:01:23;;;;;;;5.40;4.23;;;21.40;50.80;;;;;;5071175;28;20212;-75
2023/07/17 08:03:49;;;;;;;6.63;4.03;;;21.40;50.80;;;;;;5107440;28;20215;-73
2023/07/17 08:06:14;;;;;;;10.70;4.73;;;21.40;50.70;;;;;;5072571;28;20181;-76
2023/07/17 08:08:40;;;;;;;4.73;3.90;;;21.40;51.00;;;;;;5067846;28;20192;-74
2023/07/17 08:11:07;;;;;;;5.43;4.33;;;21.40;51.20;;;;;;5087213;28;20240;-74
2023/07/17 08:13:33;;;;;;;8.23;4.80;;;21.40;50.90;;;;;;5071530;28;20207;-76
2023/07/17 08:15:59;;;;;;;7.20;4.67;;;21.50;51.00;;;;;;5073804;28;20424;-74
2023/07/17 08:18:24;;;;;;;8.10;4.40;;;21.40;51.10;;;;;;5031659;28;20404;-74
2023/07/17 08:20:50;;;;;;;6.73;4.60;;;21.40;51.10;;;;;;5055996;28;20208;-76
2023/07/17 08:23:24;;;;;;;5.90;4.10;;;21.50;51.40;;;;;;5103673;28;20176;-76
2023/07/17 08:25:50;;;;;;;8.33;4.20;;;21.50;51.30;;;;;;5049162;28;20208;-76
2023/07/17 08:28:16;;;;;;;8.67;4.27;;;21.50;51.20;;;;;;5089615;28;20418;-75
2023/07/17 08:30:41;;;;;;;7.30;4.07;;;21.60;50.80;;;;;;5106016;28;20265;-74
2023/07/17 08:33:07;;;;;;;6.73;4.50;;;21.70;50.80;;;;;;5102802;28;20261;-77
2023/07/17 08:35:33;;;;;;;6.00;3.87;;;21.70;50.90;;;;;;5054392;28;20190;-76
2023/07/17 08:37:58;;;;;;;5.00;3.77;;;21.80;50.80;;;;;;5049880;28;20174;-76
2023/07/17 08:40:26;;;;;;;5.90;3.53;;;21.80;50.90;;;;;;5056643;28;20231;-74
2023/07/17 08:42:55;;;;;;;6.17;4.40;;;21.90;50.90;;;;;;5069500;28;20185;-76
2023/07/17 08:45:23;;;;;;;5.70;4.03;;;22.00;50.60;;;;;;5044598;28;20456;-74
2023/07/17 08:47:52;;;;;;;6.40;4.07;;;22.20;50.30;;;;;;5049339;28;20481;-72
2023/07/17 08:50:19;;;;;;;7.60;3.90;;;22.40;49.80;;;;;;5067689;28;20495;-72
2023/07/17 08:52:47;;;;;;;10.07;5.30;;;22.50;49.40;;;;;;5090859;28;20441;-74
2023/07/17 08:55:13;;;;;;;6.80;4.90;;;22.60;48.90;;;;;;5059016;28;20420;-76
2023/07/17 08:57:40;;;;;;;9.03;4.43;;;22.60;48.50;;;;;;5070171;28;20418;-74
2023/07/17 09:00:06;;;;;;;7.20;4.67;;;22.50;48.30;;;;;;5074923;28;20210;-73
2023/07/17 09:02:33;;;;;;;12.23;5.30;;;22.40;47.70;;;;;;5100291;28;20449;-74
2023/07/17 09:04:59;;;;;;;7.20;5.10;;;22.40;47.50;;;;;;5072940;28;20612;-72
2023/07/17 09:07:24;;;;;;;7.80;4.73;;;22.40;47.60;;;;;;5053981;28;20455;-76
2023/07/17 09:10:12;;;;;;;6.30;3.90;;;22.40;47.90;;;;;;5076799;28;20216;-75
2023/07/17 09:12:41;;;;;;;8.23;5.13;;;22.50;47.50;;;;;;5071554;28;20222;-74
2023/07/17 09:15:08;;;;;;;6.00;4.80;;;22.60;47.30;;;;;;5061130;28;20513;-72
2023/07/17 09:17:33;;;;;;;7.73;5.00;;;22.70;46.80;;;;;;5090156;28;20446;-77
2023/07/17 09:20:10;;;;;;;6.53;3.73;;;22.90;46.50;;;;;;5110114;28;20410;-76
2023/07/17 09:22:38;;;;;;;6.67;5.63;;;23.00;46.00;;;;;;5077986;28;20180;-71
2023/07/17 09:25:07;;;;;;;10.70;4.83;;;23.10;45.90;;;;;;5063759;28;20436;-72
2023/07/17 09:27:50;;;;;;;5.87;4.43;;;23.20;45.30;;;;;;5066609;28;20486;-73
2023/07/17 09:30:25;;;;;;;7.43;4.37;;;23.20;45.30;;;;;;5074453;28;20445;-74
2023/07/17 09:32:51;;;;;;;5.37;3.90;;;23.20;45.30;;;;;;5091213;28;20453;-75
2023/07/17 09:35:24;;;;;;;5.83;3.70;;;23.20;45.40;;;;;;5108130;28;20419;-74
2023/07/17 09:37:50;;;;;;;6.47;3.80;;;23.40;45.20;;;;;;5089111;28;20905;-75
2023/07/17 09:40:18;;;;;;;8.90;5.17;;;23.60;44.70;;;;;;5088945;28;20438;-74
2023/07/17 09:42:45;;;;;;;5.83;4.83;;;23.80;44.40;;;;;;5083411;28;20445;-73
2023/07/17 09:45:11;;;;;;;8.10;5.20;;;23.90;44.30;;;;;;5088344;28;20414;-75
2023/07/17 09:47:39;;;;;;;7.00;5.20;;;23.80;44.40;;;;;;5089306;28;20549;-75
2023/07/17 09:50:07;;;;;;;9.33;5.17;;;23.70;44.80;;;;;;5090566;28;20500;-76
2023/07/17 09:52:34;;;;;;;7.90;4.93;;;23.50;44.90;;;;;;5087835;28;20454;-72
2023/07/17 09:55:00;;;;;;;6.13;3.90;;;23.30;45.20;;;;;;5094693;28;20435;-74
2023/07/17 09:57:33;;;;;;;5.80;3.80;;;23.10;45.60;;;;;;5049235;28;20500;-73
2023/07/17 10:00:12;;;;;;;5.60;4.30;;;23.20;45.70;;;;;;5073070;28;20537;-74
2023/07/17 10:03:06;;;;;;;8.27;4.80;;;23.60;45.70;;;;;;5109132;28;20418;-75
2023/07/17 10:05:33;;;;;;;5.60;4.17;;;24.10;44.90;;;;;;5073307;28;20463;-74
2023/07/17 10:08:03;;;;;;;6.53;4.30;;;24.70;43.90;;;;;;5054925;28;20431;-75
2023/07/17 10:10:29;;;;;;;8.43;4.63;;;25.10;43.10;;;;;;5090980;28;20443;-72
2023/07/17 10:12:56;;;;;;;4.93;3.93;;;25.20;42.50;;;;;;5074388;28;20453;-76
2023/07/17 10:15:23;;;;;;;6.77;4.70;;;25.30;42.80;;;;;;5075178;28;20188;-76
2023/07/17 10:17:58;;;;;;;8.20;5.07;;;25.10;42.20;;;;;;5092307;28;20422;-77
2023/07/17 10:20:24;;;;;;;8.97;5.50;;;24.90;42.50;;;;;;5090942;28;20694;-73
2023/07/17 10:22:50;;;;;;;6.33;4.60;;;24.60;43.00;;;;;;5108544;28;20422;-72
2023/07/17 10:25:19;;;;;;;6.93;4.17;;;24.60;43.10;;;;;;5076860;28;20421;-76
2023/07/17 10:27:46;;;;;;;6.43;4.57;;;24.90;43.10;;;;;;5091193;28;20176;-73
2023/07/17 10:30:30;;;;;;;7.63;4.40;;;24.70;42.30;;;;;;5087474;28;20461;-74
2023/07/17 10:33:19;;;;;;;5.53;3.90;;;24.80;42.50;;;;;;5072161;28;20897;-73
2023/07/17 10:35:53;;;;;;;8.13;5.50;;;25.10;42.40;;;;;;5091019;28;20410;-76
2023/07/17 10:38:26;;;;;;;6.70;4.10;;;25.50;41.40;;;;;;5066051;28;20472;-75
2023/07/17 10:41:14;;;;;;;8.00;4.67;;;25.80;41.10;;;;;;5080182;28;20436;-73
2023/07/17 10:44:01;;;;;;;6.37;4.87;;;25.70;41.50;;;;;;5089162;28;20391;-77
2023/07/17 10:46:28;;;;;;;7.03;4.53;;;25.90;41.10;;;;;;5089510;28;20837;-74
2023/07/17 10:49:11;;;;;;;6.07;4.37;;;25.50;40.90;;;;;;5089818;28;20409;-73
2023/07/17 10:51:48;;;;;;;6.00;4.80;;;25.50;41.70;;;;;;5090563;28;20409;-76
2023/07/17 10:54:15;;;;;;;6.70;5.47;;;25.80;40.70;;;;;;5089270;28;20410;-77
2023/07/17 10:56:45;;;;;;;6.23;4.70;;;25.90;40.80;;;;;;5066378;28;20369;-74
2023/07/17 10:59:11;;;;;;;9.27;4.93;;;25.80;40.70;;;;;;5107261;28;20407;-76
2023/07/17 11:01:37;;;;;;;6.30;4.20;;;25.80;40.20;;;;;;5108992;28;20403;-75
2023/07/17 11:04:07;;;;;;;5.83;4.70;;;25.80;40.00;;;;;;5106653;28;20432;-75
2023/07/17 11:06:33;;;;;;;6.13;3.83;;;25.40;40.40;;;;;;5049867;28;20170;-74
2023/07/17 11:08:59;;;;;;;7.37;4.03;;;25.40;40.90;;;;;;5088642;28;20403;-75
2023/07/17 11:11:25;;;;;;;7.77;4.03;;;25.60;40.80;;;;;;5070476;28;20283;-76
2023/07/17 11:13:54;;;;;;;6.13;4.30;;;25.50;39.70;;;;;;5037558;28;20514;-76
2023/07/17 11:16:22;;;;;;;5.53;4.23;;;25.70;39.70;;;;;;5089153;28;20407;-75
2023/07/17 11:18:52;;;;;;;8.00;4.50;;;25.90;39.30;;;;;;5090233;28;21121;-75
2023/07/17 11:21:20;;;;;;;7.23;3.93;;;25.90;39.30;;;;;;5072327;28;20453;-75
2023/07/17 11:23:53;;;;;;;9.23;4.60;;;26.00;39.50;;;;;;5074007;28;20411;-77
2023/07/17 11:26:31;;;;;;;9.30;3.93;;;25.90;39.50;;;;;;5066268;28;20432;-75
2023/07/17 11:28:59;;;;;;;6.43;4.67;;;25.80;40.00;;;;;;5069116;28;20412;-75
2023/07/17 11:31:32;;;;;;;6.53;4.23;;;25.60;40.40;;;;;;5070384;28;20443;-75
2023/07/17 11:34:10;;;;;;;5.13;3.90;;;25.20;39.80;;;;;;5071399;28;20463;-75
2023/07/17 11:36:42;;;;;;;7.90;4.47;;;25.20;40.30;;;;;;5089174;28;20417;-75
2023/07/17 11:39:13;;;;;;;5.93;4.23;;;25.30;39.60;;;;;;5090164;28;20409;-75
2023/07/17 11:41:50;;;;;;;11.07;5.37;;;25.50;39.10;;;;;;5051348;28;20408;-75
2023/07/17 11:44:21;;;;;;;5.80;4.00;;;25.70;38.40;;;;;;5041834;28;20416;-78
2023/07/17 11:46:47;;;;;;;4.83;3.23;;;25.60;39.30;;;;;;5050716;28;20834;-74
2023/07/17 11:49:14;;;;;;;5.07;3.87;;;25.60;38.80;;;;;;5049413;28;20456;-73
2023/07/17 11:51:41;;;;;;;7.80;3.93;;;25.60;39.10;;;;;;5069095;28;20218;-76
2023/07/17 11:54:07;;;;;;;4.83;3.47;;;25.70;38.40;;;;;;5052287;28;20595;-73
2023/07/17 11:56:34;;;;;;;6.50;3.90;;;25.90;37.80;;;;;;5066516;28;20420;-73
2023/07/17 11:59:00;;;;;;;9.40;4.93;;;26.00;38.40;;;;;;5093118;28;20157;-78
2023/07/17 12:01:26;;;;;;;5.60;4.67;;;26.00;37.90;;;;;;5074227;28;20434;-76
2023/07/17 12:03:52;;;;;;;5.13;4.57;;;25.80;38.00;;;;;;5073627;28;20192;-76
2023/07/17 12:06:17;;;;;;;7.03;4.53;;;25.70;39.20;;;;;;5093687;28;20230;-75
2023/07/17 12:08:43;;;;;;;7.93;4.60;;;25.90;39.30;;;;;;5098710;28;20245;-75
2023/07/17 12:11:10;;;;;;;7.33;4.50;;;26.10;38.60;;;;;;5061480;28;20264;-74
2023/07/17 12:13:35;;;;;;;7.10;4.10;;;26.40;38.30;;;;;;5071644;28;20452;-76
2023/07/17 12:16:01;;;;;;;10.03;5.30;;;26.80;37.80;;;;;;5095722;28;20433;-76
2023/07/17 12:18:29;;;;;;;8.90;5.43;;;26.70;37.80;;;;;;5096718;28;20152;-78
2023/07/17 12:20:55;;;;;;;5.90;5.03;;;26.30;39.00;;;;;;5082638;28;20188;-78
2023/07/17 12:23:24;;;;;;;9.70;5.67;;;26.00;39.60;;;;;;5100300;28;20460;-77
2023/07/17 12:25:52;;;;;;;6.47;5.40;;;25.80;40.00;;;;;;5082816;28;20196;-76
2023/07/17 12:28:18;;;;;;;7.67;6.77;;;25.60;40.70;;;;;;5077946;28;20466;-73
2023/07/17 12:30:44;;;;;;;5.80;5.17;;;25.30;41.20;;;;;;5076635;28;20453;-74
2023/07/17 12:33:12;;;;;;;9.17;5.63;;;25.20;41.60;;;;;;5093909;28;20241;-74
2023/07/17 12:35:38;;;;;;;6.00;5.03;;;25.40;41.10;;;;;;5077182;28;20423;-74
2023/07/17 12:38:11;;;;;;;9.10;5.97;;;25.40;41.10;;;;;;5094591;28;20391;-74
2023/07/17 12:40:36;;;;;;;7.20;4.87;;;25.20;41.70;;;;;;5070305;28;20958;-75
2023/07/17 12:43:02;;;;;;;5.60;5.00;;;25.30;41.60;;;;;;5094761;28;20199;-74
2023/07/17 12:45:28;;;;;;;6.00;4.90;;;25.50;40.80;;;;;;5076130;28;20475;-77